sensor_id;sensor_type;location;lat;lon;timestamp;P1;durP1;ratioP1;P2;durP2;ratioP2
72939;SDS011;61094;51.154;13.570;2023-10-19T00:00:15;7.78;;;2.72;;
72939;SDS011;61094;51.154;13.570;2023-10-19T00:05:24;7.82;;;2.33;;
72939;SDS011;61094;51.154;13.570;2023-10-19T00:10:26;5.75;;;1.88;;
72939;SDS011;61094;51.154;13.570;2023-10-19T00:15:35;5.32;;;1.88;;
72939;SDS011;61094;51.154;13.570;2023-10-19T00:20:40;6.45;;;2.08;;
72939;SDS011;61094;51.154;13.570;2023-10-19T00:25:51;5.68;;;2.20;;
72939;SDS011;61094;51.154;13.570;2023-10-19T00:30:54;7.70;;;2.97;;
72939;SDS011;61094;51.154;13.570;2023-10-19T00:36:08;7.40;;;2.60;;
72939;SDS011;61094;51.154;13.570;2023-10-19T00:41:13;6.43;;;2.30;;
72939;SDS011;61094;51.154;13.570;2023-10-19T00:46:22;9.55;;;2.60;;
72939;SDS011;61094;51.154;13.570;2023-10-19T00:51:33;6.03;;;2.03;;
72939;SDS011;61094;51.154;13.570;2023-10-19T00:56:50;5.93;;;2.10;;
72939;SDS011;61094;51.154;13.570;2023-10-19T01:01:54;6.63;;;2.17;;
72939;SDS011;61094;51.154;13.570;2023-10-19T01:07:04;5.45;;;2.17;;
72939;SDS011;61094;51.154;13.570;2023-10-19T01:12:11;9.95;;;2.58;;
72939;SDS011;61094;51.154;13.570;2023-10-19T01:17:35;8.13;;;2.05;;
72939;SDS011;61094;51.154;13.570;2023-10-19T01:22:44;7.28;;;2.22;;
72939;SDS011;61094;51.154;13.570;2023-10-19T01:27:49;6.85;;;2.70;;
72939;SDS011;61094;51.154;13.570;2023-10-19T01:32:57;6.13;;;2.25;;
72939;SDS011;61094;51.154;13.570;2023-10-19T01:38:00;7.95;;;2.53;;
72939;SDS011;61094;51.154;13.570;2023-10-19T01:43:02;12.18;;;2.58;;
72939;SDS011;61094;51.154;13.570;2023-10-19T01:48:06;9.18;;;2.28;;
72939;SDS011;61094;51.154;13.570;2023-10-19T01:58:15;9.93;;;2.40;;
72939;SDS011;61094;51.154;13.570;2023-10-19T02:03:17;8.88;;;2.70;;
72939;SDS011;61094;51.154;13.570;2023-10-19T02:08:22;8.77;;;2.92;;
72939;SDS011;61094;51.154;13.570;2023-10-19T02:13:26;7.72;;;2.63;;
72939;SDS011;61094;51.154;13.570;2023-10-19T02:18:28;9.82;;;3.25;;
72939;SDS011;61094;51.154;13.570;2023-10-19T02:23:32;7.25;;;2.50;;
72939;SDS011;61094;51.154;13.570;2023-10-19T02:28:35;8.18;;;2.42;;
72939;SDS011;61094;51.154;13.570;2023-10-19T02:33:39;8.40;;;2.95;;
72939;SDS011;61094;51.154;13.570;2023-10-19T02:38:42;8.02;;;3.15;;
72939;SDS011;61094;51.154;13.570;2023-10-19T02:43:48;9.55;;;3.53;;
72939;SDS011;61094;51.154;13.570;2023-10-19T02:49:01;8.13;;;3.10;;
72939;SDS011;61094;51.154;13.570;2023-10-19T02:54:07;10.77;;;3.47;;
72939;SDS011;61094;51.154;13.570;2023-10-19T02:59:16;9.93;;;3.60;;
72939;SDS011;61094;51.154;13.570;2023-10-19T03:04:22;7.60;;;3.47;;
72939;SDS011;61094;51.154;13.570;2023-10-19T03:09:27;9.77;;;3.45;;
72939;SDS011;61094;51.154;13.570;2023-10-19T03:14:30;8.82;;;3.42;;
72939;SDS011;61094;51.154;13.570;2023-10-19T03:19:32;8.65;;;3.65;;
72939;SDS011;61094;51.154;13.570;2023-10-19T03:24:36;8.88;;;3.67;;
72939;SDS011;61094;51.154;13.570;2023-10-19T03:29:40;11.27;;;3.95;;
72939;SDS011;61094;51.154;13.570;2023-10-19T03:34:47;8.80;;;3.97;;
72939;SDS011;61094;51.154;13.570;2023-10-19T03:39:51;14.65;;;6.57;;
72939;SDS011;61094;51.154;13.570;2023-10-19T03:44:56;12.63;;;5.25;;
72939;SDS011;61094;51.154;13.570;2023-10-19T03:50:00;10.80;;;3.88;;
72939;SDS011;61094;51.154;13.570;2023-10-19T03:55:06;10.05;;;3.90;;
72939;SDS011;61094;51.154;13.570;2023-10-19T04:00:11;8.57;;;4.20;;
72939;SDS011;61094;51.154;13.570;2023-10-19T04:05:16;16.83;;;6.40;;
72939;SDS011;61094;51.154;13.570;2023-10-19T04:10:21;11.30;;;4.70;;
72939;SDS011;61094;51.154;13.570;2023-10-19T04:15:38;12.65;;;5.28;;
72939;SDS011;61094;51.154;13.570;2023-10-19T04:20:41;11.90;;;4.53;;
72939;SDS011;61094;51.154;13.570;2023-10-19T04:25:56;11.40;;;4.78;;
72939;SDS011;61094;51.154;13.570;2023-10-19T04:36:03;14.20;;;4.95;;
72939;SDS011;61094;51.154;13.570;2023-10-19T04:41:10;12.95;;;5.25;;
72939;SDS011;61094;51.154;13.570;2023-10-19T04:46:12;14.23;;;5.95;;
72939;SDS011;61094;51.154;13.570;2023-10-19T04:51:14;11.52;;;5.40;;
72939;SDS011;61094;51.154;13.570;2023-10-19T04:56:21;11.07;;;4.75;;
72939;SDS011;61094;51.154;13.570;2023-10-19T05:01:26;13.82;;;6.75;;
72939;SDS011;61094;51.154;13.570;2023-10-19T05:06:28;23.08;;;10.40;;
72939;SDS011;61094;51.154;13.570;2023-10-19T05:11:31;14.15;;;6.50;;
72939;SDS011;61094;51.154;13.570;2023-10-19T05:16:33;14.43;;;6.95;;
72939;SDS011;61094;51.154;13.570;2023-10-19T05:21:34;13.30;;;6.35;;
72939;SDS011;61094;51.154;13.570;2023-10-19T05:26:37;15.57;;;5.75;;
72939;SDS011;61094;51.154;13.570;2023-10-19T05:31:39;12.05;;;6.30;;
72939;SDS011;61094;51.154;13.570;2023-10-19T05:36:41;13.65;;;5.95;;
72939;SDS011;61094;51.154;13.570;2023-10-19T05:41:49;14.82;;;7.30;;
72939;SDS011;61094;51.154;13.570;2023-10-19T05:46:52;14.05;;;7.05;;
72939;SDS011;61094;51.154;13.570;2023-10-19T05:51:55;13.93;;;6.93;;
72939;SDS011;61094;51.154;13.570;2023-10-19T05:56:58;15.90;;;7.78;;
72939;SDS011;61094;51.154;13.570;2023-10-19T06:02:00;17.50;;;7.75;;
72939;SDS011;61094;51.154;13.570;2023-10-19T06:07:02;13.80;;;6.50;;
72939;SDS011;61094;51.154;13.570;2023-10-19T06:12:12;14.07;;;6.72;;
72939;SDS011;61094;51.154;13.570;2023-10-19T06:17:14;14.25;;;7.07;;
72939;SDS011;61094;51.154;13.570;2023-10-19T06:22:19;19.70;;;9.23;;
72939;SDS011;61094;51.154;13.570;2023-10-19T06:27:25;15.77;;;7.40;;
72939;SDS011;61094;51.154;13.570;2023-10-19T06:32:58;13.35;;;5.85;;
72939;SDS011;61094;51.154;13.570;2023-10-19T06:38:01;10.32;;;5.40;;
72939;SDS011;61094;51.154;13.570;2023-10-19T06:43:05;10.95;;;6.00;;
72939;SDS011;61094;51.154;13.570;2023-10-19T06:48:14;14.55;;;6.78;;
72939;SDS011;61094;51.154;13.570;2023-10-19T06:53:17;19.48;;;9.02;;
72939;SDS011;61094;51.154;13.570;2023-10-19T06:58:20;13.68;;;6.45;;
72939;SDS011;61094;51.154;13.570;2023-10-19T07:03:26;17.25;;;7.50;;
72939;SDS011;61094;51.154;13.570;2023-10-19T07:08:29;23.08;;;9.57;;
72939;SDS011;61094;51.154;13.570;2023-10-19T07:13:32;16.95;;;7.88;;
72939;SDS011;61094;51.154;13.570;2023-10-19T07:18:34;18.88;;;8.05;;
72939;SDS011;61094;51.154;13.570;2023-10-19T07:23:37;13.45;;;6.95;;
72939;SDS011;61094;51.154;13.570;2023-10-19T07:28:41;32.45;;;13.18;;
72939;SDS011;61094;51.154;13.570;2023-10-19T07:33:43;25.65;;;10.35;;
72939;SDS011;61094;51.154;13.570;2023-10-19T07:43:50;20.25;;;8.98;;
72939;SDS011;61094;51.154;13.570;2023-10-19T07:48:51;21.35;;;9.80;;
72939;SDS011;61094;51.154;13.570;2023-10-19T07:53:53;19.90;;;9.40;;
72939;SDS011;61094;51.154;13.570;2023-10-19T07:58:56;16.80;;;7.72;;
72939;SDS011;61094;51.154;13.570;2023-10-19T08:03:58;19.75;;;9.57;;
72939;SDS011;61094;51.154;13.570;2023-10-19T08:09:00;25.75;;;8.98;;
72939;SDS011;61094;51.154;13.570;2023-10-19T08:14:06;19.77;;;9.23;;
72939;SDS011;61094;51.154;13.570;2023-10-19T08:19:08;19.58;;;9.23;;
72939;SDS011;61094;51.154;13.570;2023-10-19T08:24:17;19.48;;;9.13;;
72939;SDS011;61094;51.154;13.570;2023-10-19T08:29:20;21.58;;;10.18;;
72939;SDS011;61094;51.154;13.570;2023-10-19T08:34:22;15.68;;;7.88;;
72939;SDS011;61094;51.154;13.570;2023-10-19T08:39:25;19.67;;;8.30;;
72939;SDS011;61094;51.154;13.570;2023-10-19T08:44:28;22.15;;;9.65;;
72939;SDS011;61094;51.154;13.570;2023-10-19T08:49:30;19.42;;;8.75;;
72939;SDS011;61094;51.154;13.570;2023-10-19T08:54:32;18.13;;;8.70;;
72939;SDS011;61094;51.154;13.570;2023-10-19T08:59:35;22.50;;;10.10;;
72939;SDS011;61094;51.154;13.570;2023-10-19T09:04:41;19.27;;;8.82;;
72939;SDS011;61094;51.154;13.570;2023-10-19T09:09:43;21.50;;;9.48;;
72939;SDS011;61094;51.154;13.570;2023-10-19T09:14:49;19.60;;;9.52;;
72939;SDS011;61094;51.154;13.570;2023-10-19T09:19:52;19.50;;;9.43;;
72939;SDS011;61094;51.154;13.570;2023-10-19T09:24:56;19.23;;;8.88;;
72939;SDS011;61094;51.154;13.570;2023-10-19T09:30:08;22.80;;;10.35;;
72939;SDS011;61094;51.154;13.570;2023-10-19T09:35:16;21.50;;;9.95;;
72939;SDS011;61094;51.154;13.570;2023-10-19T09:40:20;21.20;;;11.07;;
72939;SDS011;61094;51.154;13.570;2023-10-19T09:45:28;18.00;;;7.68;;
72939;SDS011;61094;51.154;13.570;2023-10-19T09:55:37;16.80;;;7.43;;
72939;SDS011;61094;51.154;13.570;2023-10-19T10:00:44;19.23;;;7.47;;
72939;SDS011;61094;51.154;13.570;2023-10-19T10:05:46;19.23;;;8.73;;
72939;SDS011;61094;51.154;13.570;2023-10-19T10:10:51;21.80;;;9.15;;
72939;SDS011;61094;51.154;13.570;2023-10-19T10:15:54;15.32;;;7.20;;
72939;SDS011;61094;51.154;13.570;2023-10-19T10:21:04;13.05;;;7.10;;
72939;SDS011;61094;51.154;13.570;2023-10-19T10:26:08;15.52;;;6.53;;
72939;SDS011;61094;51.154;13.570;2023-10-19T10:31:13;17.05;;;7.43;;
72939;SDS011;61094;51.154;13.570;2023-10-19T10:36:17;14.75;;;7.60;;
72939;SDS011;61094;51.154;13.570;2023-10-19T10:41:20;16.02;;;7.30;;
72939;SDS011;61094;51.154;13.570;2023-10-19T10:46:24;14.75;;;7.25;;
72939;SDS011;61094;51.154;13.570;2023-10-19T10:51:28;17.25;;;6.97;;
72939;SDS011;61094;51.154;13.570;2023-10-19T10:56:30;15.65;;;6.85;;
72939;SDS011;61094;51.154;13.570;2023-10-19T11:01:33;13.52;;;6.18;;
72939;SDS011;61094;51.154;13.570;2023-10-19T11:06:45;13.80;;;6.25;;
72939;SDS011;61094;51.154;13.570;2023-10-19T11:11:49;17.30;;;7.78;;
72939;SDS011;61094;51.154;13.570;2023-10-19T11:21:55;13.18;;;6.22;;
72939;SDS011;61094;51.154;13.570;2023-10-19T11:26:59;16.55;;;8.55;;
72939;SDS011;61094;51.154;13.570;2023-10-19T11:32:03;21.15;;;9.52;;
72939;SDS011;61094;51.154;13.570;2023-10-19T11:37:06;18.00;;;8.25;;
72939;SDS011;61094;51.154;13.570;2023-10-19T11:42:08;18.15;;;8.57;;
72939;SDS011;61094;51.154;13.570;2023-10-19T11:47:11;18.17;;;8.35;;
72939;SDS011;61094;51.154;13.570;2023-10-19T11:52:14;16.25;;;7.60;;
72939;SDS011;61094;51.154;13.570;2023-10-19T11:57:16;16.38;;;7.88;;
72939;SDS011;61094;51.154;13.570;2023-10-19T12:02:20;19.38;;;9.23;;
72939;SDS011;61094;51.154;13.570;2023-10-19T12:07:22;17.90;;;8.25;;
72939;SDS011;61094;51.154;13.570;2023-10-19T12:12:24;20.35;;;8.27;;
72939;SDS011;61094;51.154;13.570;2023-10-19T12:17:28;18.92;;;8.98;;
72939;SDS011;61094;51.154;13.570;2023-10-19T12:22:38;20.58;;;9.32;;
72939;SDS011;61094;51.154;13.570;2023-10-19T12:27:46;21.42;;;9.75;;
72939;SDS011;61094;51.154;13.570;2023-10-19T12:32:52;19.05;;;9.73;;
72939;SDS011;61094;51.154;13.570;2023-10-19T12:37:54;20.05;;;9.32;;
72939;SDS011;61094;51.154;13.570;2023-10-19T12:42:56;19.73;;;9.65;;
72939;SDS011;61094;51.154;13.570;2023-10-19T12:48:05;21.67;;;10.02;;
72939;SDS011;61094;51.154;13.570;2023-10-19T12:53:08;22.48;;;10.15;;
72939;SDS011;61094;51.154;13.570;2023-10-19T12:58:10;20.17;;;9.25;;
72939;SDS011;61094;51.154;13.570;2023-10-19T13:03:14;20.60;;;8.93;;
72939;SDS011;61094;51.154;13.570;2023-10-19T13:08:29;23.92;;;11.23;;
72939;SDS011;61094;51.154;13.570;2023-10-19T13:14:29;21.25;;;9.57;;
72939;SDS011;61094;51.154;13.570;2023-10-19T13:20:13;18.27;;;8.98;;
72939;SDS011;61094;51.154;13.570;2023-10-19T13:25:18;18.05;;;8.60;;
72939;SDS011;61094;51.154;13.570;2023-10-19T13:30:55;20.92;;;10.43;;
72939;SDS011;61094;51.154;13.570;2023-10-19T13:35:58;18.10;;;8.65;;
72939;SDS011;61094;51.154;13.570;2023-10-19T13:41:02;23.60;;;8.85;;
72939;SDS011;61094;51.154;13.570;2023-10-19T13:46:07;19.20;;;9.82;;
72939;SDS011;61094;51.154;13.570;2023-10-19T13:51:10;20.10;;;8.63;;
72939;SDS011;61094;51.154;13.570;2023-10-19T13:56:16;17.80;;;8.20;;
72939;SDS011;61094;51.154;13.570;2023-10-19T14:01:18;22.30;;;9.40;;
72939;SDS011;61094;51.154;13.570;2023-10-19T14:06:25;20.42;;;9.23;;
72939;SDS011;61094;51.154;13.570;2023-10-19T14:11:28;19.40;;;9.13;;
72939;SDS011;61094;51.154;13.570;2023-10-19T14:16:30;24.55;;;9.63;;
72939;SDS011;61094;51.154;13.570;2023-10-19T14:21:33;23.00;;;10.55;;
72939;SDS011;61094;51.154;13.570;2023-10-19T14:26:37;18.52;;;8.65;;
72939;SDS011;61094;51.154;13.570;2023-10-19T14:41:45;20.70;;;10.48;;
72939;SDS011;61094;51.154;13.570;2023-10-19T14:46:47;20.65;;;9.80;;
72939;SDS011;61094;51.154;13.570;2023-10-19T14:51:50;22.33;;;11.13;;
72939;SDS011;61094;51.154;13.570;2023-10-19T14:56:52;24.88;;;11.10;;
72939;SDS011;61094;51.154;13.570;2023-10-19T15:01:57;24.55;;;10.70;;
72939;SDS011;61094;51.154;13.570;2023-10-19T15:07:27;20.45;;;10.45;;
72939;SDS011;61094;51.154;13.570;2023-10-19T15:12:38;20.38;;;9.73;;
72939;SDS011;61094;51.154;13.570;2023-10-19T15:17:40;23.45;;;11.88;;
72939;SDS011;61094;51.154;13.570;2023-10-19T15:48:12;23.95;;;11.60;;
72939;SDS011;61094;51.154;13.570;2023-10-19T15:53:14;22.08;;;10.32;;
72939;SDS011;61094;51.154;13.570;2023-10-19T15:58:17;26.55;;;12.07;;
72939;SDS011;61094;51.154;13.570;2023-10-19T16:03:22;27.20;;;11.82;;
72939;SDS011;61094;51.154;13.570;2023-10-19T16:13:26;26.67;;;12.32;;
72939;SDS011;61094;51.154;13.570;2023-10-19T16:18:29;25.67;;;11.85;;
72939;SDS011;61094;51.154;13.570;2023-10-19T16:23:31;28.15;;;12.48;;
72939;SDS011;61094;51.154;13.570;2023-10-19T16:28:33;32.05;;;14.20;;
72939;SDS011;61094;51.154;13.570;2023-10-19T16:33:42;28.45;;;12.65;;
72939;SDS011;61094;51.154;13.570;2023-10-19T16:38:49;30.23;;;13.73;;
72939;SDS011;61094;51.154;13.570;2023-10-19T16:44:14;26.52;;;12.90;;
72939;SDS011;61094;51.154;13.570;2023-10-19T16:49:44;28.00;;;12.65;;
72939;SDS011;61094;51.154;13.570;2023-10-19T16:54:51;30.35;;;13.48;;
72939;SDS011;61094;51.154;13.570;2023-10-19T17:11:49;24.98;;;11.93;;
72939;SDS011;61094;51.154;13.570;2023-10-19T17:16:52;33.22;;;14.23;;
72939;SDS011;61094;51.154;13.570;2023-10-19T17:21:58;28.15;;;13.73;;
72939;SDS011;61094;51.154;13.570;2023-10-19T17:39:32;28.85;;;12.60;;
72939;SDS011;61094;51.154;13.570;2023-10-19T17:58:45;30.83;;;13.50;;
72939;SDS011;61094;51.154;13.570;2023-10-19T18:03:47;34.15;;;14.18;;
72939;SDS011;61094;51.154;13.570;2023-10-19T18:09:04;33.28;;;14.13;;
72939;SDS011;61094;51.154;13.570;2023-10-19T18:14:09;34.83;;;14.85;;
72939;SDS011;61094;51.154;13.570;2023-10-19T18:19:13;30.20;;;14.18;;
72939;SDS011;61094;51.154;13.570;2023-10-19T18:24:15;34.22;;;14.93;;
72939;SDS011;61094;51.154;13.570;2023-10-19T18:29:19;36.05;;;14.27;;
72939;SDS011;61094;51.154;13.570;2023-10-19T18:34:21;36.30;;;14.98;;
72939;SDS011;61094;51.154;13.570;2023-10-19T18:39:25;32.03;;;13.68;;
72939;SDS011;61094;51.154;13.570;2023-10-19T18:44:30;31.55;;;14.55;;
72939;SDS011;61094;51.154;13.570;2023-10-19T18:56:07;32.42;;;14.07;;
72939;SDS011;61094;51.154;13.570;2023-10-19T19:01:10;36.00;;;14.93;;
72939;SDS011;61094;51.154;13.570;2023-10-19T19:06:12;39.13;;;16.88;;
72939;SDS011;61094;51.154;13.570;2023-10-19T19:11:14;32.58;;;13.02;;
72939;SDS011;61094;51.154;13.570;2023-10-19T19:16:19;34.25;;;14.07;;
72939;SDS011;61094;51.154;13.570;2023-10-19T19:21:22;39.22;;;15.30;;
72939;SDS011;61094;51.154;13.570;2023-10-19T19:26:24;36.50;;;14.40;;
72939;SDS011;61094;51.154;13.570;2023-10-19T19:31:27;37.17;;;15.90;;
72939;SDS011;61094;51.154;13.570;2023-10-19T19:36:29;36.35;;;15.10;;
72939;SDS011;61094;51.154;13.570;2023-10-19T19:41:31;38.70;;;15.23;;
72939;SDS011;61094;51.154;13.570;2023-10-19T19:46:34;34.00;;;14.35;;
72939;SDS011;61094;51.154;13.570;2023-10-19T19:51:36;33.78;;;14.48;;
72939;SDS011;61094;51.154;13.570;2023-10-19T19:56:40;38.95;;;15.20;;
72939;SDS011;61094;51.154;13.570;2023-10-19T20:01:43;40.55;;;14.70;;
72939;SDS011;61094;51.154;13.570;2023-10-19T20:06:46;34.35;;;15.25;;
72939;SDS011;61094;51.154;13.570;2023-10-19T20:11:48;40.65;;;14.80;;
72939;SDS011;61094;51.154;13.570;2023-10-19T20:16:51;37.80;;;15.00;;
72939;SDS011;61094;51.154;13.570;2023-10-19T20:22:02;31.95;;;14.38;;
72939;SDS011;61094;51.154;13.570;2023-10-19T20:27:04;34.78;;;15.23;;
72939;SDS011;61094;51.154;13.570;2023-10-19T20:32:10;39.72;;;15.52;;
72939;SDS011;61094;51.154;13.570;2023-10-19T20:37:15;41.22;;;17.13;;
72939;SDS011;61094;51.154;13.570;2023-10-19T20:42:20;45.22;;;17.05;;
72939;SDS011;61094;51.154;13.570;2023-10-19T20:47:27;39.85;;;16.08;;
72939;SDS011;61094;51.154;13.570;2023-10-19T20:52:47;44.17;;;17.92;;
72939;SDS011;61094;51.154;13.570;2023-10-19T20:57:50;43.53;;;16.75;;
72939;SDS011;61094;51.154;13.570;2023-10-19T21:02:55;43.03;;;17.20;;
72939;SDS011;61094;51.154;13.570;2023-10-19T21:07:57;45.13;;;17.08;;
72939;SDS011;61094;51.154;13.570;2023-10-19T21:13:05;48.72;;;16.98;;
72939;SDS011;61094;51.154;13.570;2023-10-19T21:18:16;41.92;;;17.98;;
72939;SDS011;61094;51.154;13.570;2023-10-19T21:23:21;48.28;;;17.95;;
72939;SDS011;61094;51.154;13.570;2023-10-19T21:28:33;40.80;;;16.88;;
72939;SDS011;61094;51.154;13.570;2023-10-19T21:33:37;41.08;;;17.70;;
72939;SDS011;61094;51.154;13.570;2023-10-19T21:43:41;46.42;;;18.27;;
72939;SDS011;61094;51.154;13.570;2023-10-19T21:48:44;41.30;;;18.23;;
72939;SDS011;61094;51.154;13.570;2023-10-19T21:53:48;48.30;;;18.52;;
72939;SDS011;61094;51.154;13.570;2023-10-19T21:58:50;44.20;;;18.38;;
72939;SDS011;61094;51.154;13.570;2023-10-19T22:03:53;50.83;;;19.67;;
72939;SDS011;61094;51.154;13.570;2023-10-19T22:08:55;54.72;;;20.30;;
72939;SDS011;61094;51.154;13.570;2023-10-19T22:13:57;55.58;;;22.42;;
72939;SDS011;61094;51.154;13.570;2023-10-19T22:19:00;44.13;;;19.75;;
72939;SDS011;61094;51.154;13.570;2023-10-19T22:29:04;51.78;;;19.65;;
72939;SDS011;61094;51.154;13.570;2023-10-19T22:34:08;51.70;;;19.73;;
72939;SDS011;61094;51.154;13.570;2023-10-19T22:39:12;47.83;;;20.45;;
72939;SDS011;61094;51.154;13.570;2023-10-19T22:44:15;53.00;;;19.40;;
72939;SDS011;61094;51.154;13.570;2023-10-19T22:49:18;50.70;;;21.45;;
72939;SDS011;61094;51.154;13.570;2023-10-19T22:54:20;49.33;;;18.63;;
72939;SDS011;61094;51.154;13.570;2023-10-19T22:59:22;50.25;;;20.13;;
72939;SDS011;61094;51.154;13.570;2023-10-19T23:04:25;53.17;;;20.23;;
72939;SDS011;61094;51.154;13.570;2023-10-19T23:09:28;54.90;;;21.13;;
72939;SDS011;61094;51.154;13.570;2023-10-19T23:14:32;51.70;;;21.65;;
72939;SDS011;61094;51.154;13.570;2023-10-19T23:19:35;54.13;;;20.58;;
72939;SDS011;61094;51.154;13.570;2023-10-19T23:24:40;54.42;;;21.00;;
72939;SDS011;61094;51.154;13.570;2023-10-19T23:29:43;54.85;;;19.98;;
72939;SDS011;61094;51.154;13.570;2023-10-19T23:34:47;61.17;;;23.10;;
72939;SDS011;61094;51.154;13.570;2023-10-19T23:39:49;69.00;;;24.20;;
72939;SDS011;61094;51.154;13.570;2023-10-19T23:44:51;58.22;;;22.45;;
72939;SDS011;61094;51.154;13.570;2023-10-19T23:49:54;59.97;;;21.90;;
72939;SDS011;61094;51.154;13.570;2023-10-19T23:59:58;52.90;;;21.08;;
